createdAt,value
2022-12-08T00:02:18.429Z,97.51
2022-12-08T00:05:42.246Z,97.16
2022-12-08T00:09:03.343Z,96.02
2022-12-08T00:12:15.395Z,96.05
2022-12-08T00:15:17.733Z,96.72
2022-12-08T00:18:19.901Z,97.17
2022-12-08T00:21:22.151Z,96.98
2022-12-08T00:24:25.922Z,97.20
2022-12-08T00:27:28.148Z,97.28
2022-12-08T00:30:30.460Z,97.68
2022-12-08T00:33:32.723Z,97.86
2022-12-08T00:36:35.059Z,97.18
2022-12-08T00:39:37.323Z,96.53
2022-12-08T00:42:39.541Z,96.40
2022-12-08T00:45:42.940Z,96.26
2022-12-08T00:48:45.214Z,96.56
2022-12-08T00:51:47.665Z,96.63
2022-12-08T00:54:49.825Z,97.00
2022-12-08T00:57:52.080Z,97.84
2022-12-08T01:00:54.316Z,98.30
2022-12-08T01:03:56.827Z,98.82
2022-12-08T01:06:59.045Z,98.17
2022-12-08T01:10:01.368Z,97.60
2022-12-08T01:13:04.245Z,97.62
2022-12-08T01:16:07.238Z,97.04
2022-12-08T01:19:12.363Z,96.50
2022-12-08T01:22:14.882Z,96.16
2022-12-08T01:25:17.169Z,96.33
2022-12-08T01:28:19.448Z,96.44
2022-12-08T01:31:22.947Z,96.85
2022-12-08T01:34:25.336Z,96.50
2022-12-08T01:37:27.626Z,96.47
2022-12-08T01:40:29.912Z,96.55
2022-12-08T01:43:56.704Z,96.61
2022-12-08T01:46:59.192Z,96.68
2022-12-08T01:50:02.846Z,96.55
2022-12-08T01:53:21.693Z,96.33
2022-12-08T01:56:41.520Z,96.14
2022-12-08T01:59:52.139Z,96.21
2022-12-08T02:03:09.064Z,95.25
2022-12-08T02:06:12.108Z,94.96
2022-12-08T02:09:14.858Z,95.81
2022-12-08T02:12:17.128Z,95.80
2022-12-08T02:15:21.984Z,96.23
2022-12-08T02:18:53.728Z,96.25
2022-12-08T02:22:19.158Z,95.91
2022-12-08T02:25:29.444Z,95.91
2022-12-08T02:28:59.276Z,96.39
2022-12-08T02:32:22.730Z,96.20
2022-12-08T02:35:47.920Z,96.26
2022-12-08T02:39:10.361Z,95.92
2022-12-08T02:42:17.523Z,96.06
2022-12-08T02:45:36.254Z,96.34
2022-12-08T02:48:39.196Z,96.25
2022-12-08T02:51:48.107Z,96.94
2022-12-08T02:55:04.783Z,96.72
2022-12-08T02:58:13.139Z,96.51
2022-12-08T03:01:37.467Z,96.45
2022-12-08T03:04:48.870Z,96.64
2022-12-08T03:08:02.480Z,96.44
2022-12-08T03:11:34.775Z,96.29
2022-12-08T03:14:40.850Z,96.58
2022-12-08T03:17:48.258Z,96.69
2022-12-08T03:20:51.872Z,96.88
2022-12-08T03:23:56.824Z,96.67
2022-12-08T03:27:03.557Z,96.60
2022-12-08T03:30:06.929Z,96.63
2022-12-08T03:33:19.304Z,96.89
2022-12-08T03:36:22.508Z,96.91
2022-12-08T03:39:24.736Z,96.68
2022-12-08T03:42:27.035Z,96.76
2022-12-08T03:45:29.578Z,96.85
2022-12-08T03:48:31.872Z,96.97
2022-12-08T03:51:34.042Z,96.49
2022-12-08T03:54:36.286Z,97.35
2022-12-08T03:57:38.643Z,97.12
2022-12-08T04:00:41.373Z,96.73
2022-12-08T04:03:43.786Z,97.21
2022-12-08T04:06:46.254Z,96.64
2022-12-08T04:09:48.448Z,96.75
2022-12-08T04:12:50.801Z,96.71
2022-12-08T04:15:53.100Z,96.18
2022-12-08T04:18:55.456Z,95.80
2022-12-08T04:21:57.780Z,94.49
2022-12-08T04:25:00.044Z,94.31
2022-12-08T04:28:02.580Z,94.10
2022-12-08T04:31:05.762Z,94.12
2022-12-08T04:34:07.998Z,93.84
2022-12-08T04:37:10.280Z,93.32
2022-12-08T04:40:13.376Z,93.27
2022-12-08T04:43:15.687Z,93.19
2022-12-08T04:46:17.949Z,92.83
2022-12-08T04:49:21.904Z,92.60
2022-12-08T04:52:24.106Z,92.33
2022-12-08T04:55:26.455Z,92.09
2022-12-08T04:58:28.632Z,91.28
2022-12-08T05:01:31.016Z,91.33
2022-12-08T05:04:33.328Z,90.96
2022-12-08T05:07:35.581Z,91.13
2022-12-08T05:10:38.158Z,90.99
2022-12-08T05:13:40.703Z,90.99
2022-12-08T05:16:43.332Z,89.94
2022-12-08T05:19:45.628Z,89.87
2022-12-08T05:22:47.880Z,90.14
2022-12-08T05:25:50.117Z,89.99
2022-12-08T05:28:52.807Z,90.41
2022-12-08T05:31:55.194Z,90.50
2022-12-08T05:34:57.454Z,90.67
2022-12-08T05:37:59.720Z,90.67
2022-12-08T05:41:01.984Z,91.54
2022-12-08T05:44:04.298Z,91.63
2022-12-08T05:47:06.580Z,91.22
2022-12-08T05:50:08.996Z,92.26
2022-12-08T05:53:11.160Z,92.21
2022-12-08T05:56:13.532Z,89.89
2022-12-08T05:59:22.313Z,89.87
2022-12-08T06:02:24.721Z,89.95
2022-12-08T06:05:26.991Z,90.23
2022-12-08T06:08:29.430Z,90.24
2022-12-08T06:11:32.991Z,90.17
2022-12-08T06:14:35.467Z,90.91
2022-12-08T06:17:37.739Z,91.16
2022-12-08T06:20:40.011Z,90.19
2022-12-08T06:23:42.879Z,90.97
2022-12-08T06:26:46.018Z,91.38
2022-12-08T06:29:48.266Z,91.80
2022-12-08T06:32:50.496Z,91.77
2022-12-08T06:35:53.246Z,92.12
2022-12-08T06:38:56.022Z,92.22
2022-12-08T06:42:16.580Z,92.66
2022-12-08T06:45:19.046Z,92.48
2022-12-08T06:48:21.300Z,92.73
2022-12-08T06:51:23.615Z,92.99
2022-12-08T06:54:26.135Z,92.69
2022-12-08T06:57:28.677Z,92.81
2022-12-08T07:00:33.954Z,92.47
2022-12-08T07:03:37.663Z,92.27
2022-12-08T07:06:43.804Z,92.93
2022-12-08T07:09:49.217Z,92.32
2022-12-08T07:12:51.437Z,92.22
2022-12-08T07:15:53.707Z,92.29
2022-12-08T07:18:56.166Z,91.33
2022-12-08T07:21:58.598Z,91.26
2022-12-08T07:25:00.969Z,91.67
2022-12-08T07:28:08.567Z,91.04
2022-12-08T07:31:20.140Z,90.97
2022-12-08T07:34:22.497Z,90.55
2022-12-08T07:37:24.736Z,90.70
2022-12-08T07:40:26.974Z,90.38
2022-12-08T07:43:29.297Z,90.04
2022-12-08T07:46:31.655Z,89.82
2022-12-08T07:49:33.888Z,89.05
2022-12-08T07:52:39.718Z,88.91
2022-12-08T07:55:48.427Z,88.55
2022-12-08T07:58:51.270Z,88.27
2022-12-08T08:02:20.989Z,88.56
2022-12-08T08:05:18.453Z,87.92
2022-12-08T08:08:20.926Z,87.26
2022-12-08T08:11:26.297Z,87.72
2022-12-08T08:14:28.672Z,87.71
2022-12-08T08:17:32.165Z,88.28
2022-12-08T08:20:34.756Z,88.81
2022-12-08T08:23:37.217Z,87.96
2022-12-08T08:26:39.666Z,88.70
2022-12-08T08:29:41.962Z,87.85
2022-12-08T08:32:44.348Z,87.24
2022-12-08T08:35:46.730Z,87.43
2022-12-08T08:38:51.684Z,87.26
2022-12-08T08:41:53.943Z,87.72
2022-12-08T08:44:56.307Z,88.23
2022-12-08T08:47:58.994Z,87.10
2022-12-08T08:51:12.748Z,87.42
2022-12-08T08:54:15.362Z,87.00
2022-12-08T08:57:25.705Z,86.33
2022-12-08T09:00:32.283Z,85.79
2022-12-08T09:03:35.665Z,85.34
2022-12-08T09:06:38.298Z,84.84
2022-12-08T09:09:41.004Z,85.25
2022-12-08T09:12:43.355Z,86.09
2022-12-08T09:15:48.655Z,84.82
2022-12-08T09:18:51.133Z,85.06
2022-12-08T09:21:53.452Z,85.01
2022-12-08T09:24:55.875Z,84.67
2022-12-08T09:27:58.346Z,84.47
2022-12-08T09:31:01.399Z,83.97
2022-12-08T09:34:04.567Z,84.00
2022-12-08T09:37:06.904Z,83.49
2022-12-08T09:40:15.891Z,83.37
2022-12-08T09:43:36.424Z,83.13
2022-12-08T09:46:39.528Z,83.16
2022-12-08T09:49:47.177Z,82.65
2022-12-08T09:53:19.624Z,82.20
2022-12-08T09:56:30.062Z,81.31
2022-12-08T09:59:35.626Z,82.42
2022-12-08T10:02:37.868Z,80.28
2022-12-08T10:05:47.598Z,79.89
2022-12-08T10:09:22.936Z,78.79
2022-12-08T10:12:41.675Z,78.95
2022-12-08T10:16:06.950Z,78.78
2022-12-08T10:19:22.619Z,78.82
2022-12-08T10:22:27.385Z,78.10
2022-12-08T10:25:36.614Z,77.85
2022-12-08T10:28:44.444Z,77.47
2022-12-08T10:31:47.668Z,76.61
2022-12-08T10:35:20.923Z,76.60
2022-12-08T10:38:29.491Z,76.26
2022-12-08T10:41:31.695Z,75.40
2022-12-08T10:44:40.297Z,75.08
2022-12-08T10:47:56.902Z,76.09
2022-12-08T10:50:59.989Z,76.39
2022-12-08T10:54:03.343Z,76.17
2022-12-08T10:57:05.868Z,76.32
2022-12-08T11:00:14.350Z,76.62
2022-12-08T11:03:25.801Z,77.47
2022-12-08T11:06:32.568Z,77.41
2022-12-08T11:09:48.677Z,77.22
2022-12-08T11:12:51.398Z,76.38
2022-12-08T11:15:58.423Z,77.16
2022-12-08T11:19:07.355Z,77.86
2022-12-08T11:22:25.740Z,78.03
2022-12-08T11:25:28.245Z,77.65
2022-12-08T11:28:35.340Z,78.28
2022-12-08T11:31:46.749Z,77.34
2022-12-08T11:34:55.546Z,77.17
2022-12-08T11:38:21.473Z,78.69
2022-12-08T11:41:28.965Z,77.99
2022-12-08T11:44:47.167Z,78.23
2022-12-08T11:48:09.670Z,78.50
2022-12-08T11:51:32.743Z,78.07
2022-12-08T11:54:44.687Z,78.66
2022-12-08T11:57:48.803Z,79.06
2022-12-08T12:00:51.134Z,79.08
2022-12-08T12:04:22.514Z,79.32
2022-12-08T12:07:54.444Z,79.47
2022-12-08T12:11:02.596Z,78.36
2022-12-08T12:14:21.764Z,77.64
2022-12-08T12:17:23.947Z,76.96
2022-12-08T12:20:38.016Z,76.50
2022-12-08T12:23:40.189Z,76.44
2022-12-08T12:26:56.987Z,77.04
2022-12-08T12:30:02.983Z,77.31
2022-12-08T12:33:08.734Z,77.92
2022-12-08T12:36:11.707Z,77.65
2022-12-08T12:39:15.457Z,77.57
2022-12-08T12:42:48.612Z,77.74
2022-12-08T12:45:50.999Z,77.86
2022-12-08T12:49:25.746Z,78.34
2022-12-08T12:52:33.888Z,79.06
2022-12-08T12:56:10.146Z,80.23
2022-12-08T12:59:46.163Z,79.33
2022-12-08T13:02:53.234Z,79.70
2022-12-08T13:05:55.582Z,80.17
2022-12-08T13:08:58.955Z,79.10
2022-12-08T13:12:10.494Z,78.82
2022-12-08T13:15:20.423Z,80.06
2022-12-08T13:18:36.407Z,79.87
2022-12-08T13:21:39.440Z,78.47
2022-12-08T13:24:43.259Z,79.82
2022-12-08T13:27:53.704Z,78.79
2022-12-08T13:31:05.173Z,78.98
2022-12-08T13:34:11.097Z,80.20
2022-12-08T13:37:16.171Z,80.06
2022-12-08T13:40:32.045Z,80.52
2022-12-08T13:43:55.565Z,80.41
2022-12-08T13:47:41.449Z,80.88
2022-12-08T13:52:33.035Z,81.06
2022-12-08T13:55:01.851Z,81.32
2022-12-08T13:57:36.711Z,82.20
2022-12-08T14:00:42.002Z,82.61
2022-12-08T14:04:34.252Z,83.69
2022-12-08T14:07:24.794Z,83.61
2022-12-08T14:10:30.509Z,82.53
2022-12-08T14:13:34.403Z,83.76
2022-12-08T14:16:43.741Z,83.77
2022-12-08T14:20:14.107Z,84.95
2022-12-08T14:23:17.620Z,85.41
2022-12-08T14:26:19.810Z,85.06
2022-12-08T14:29:35.937Z,85.97
2022-12-08T14:32:49.577Z,85.60
2022-12-08T14:35:54.902Z,85.92
2022-12-08T14:38:57.563Z,86.33
2022-12-08T14:42:01.032Z,87.05
2022-12-08T14:45:11.511Z,86.53
2022-12-08T14:48:25.968Z,87.11
2022-12-08T14:51:32.881Z,87.56
2022-12-08T14:54:35.615Z,87.29
2022-12-08T14:57:37.839Z,87.28
2022-12-08T15:00:47.266Z,87.66
2022-12-08T15:03:51.392Z,88.00
2022-12-08T15:07:05.752Z,88.69
2022-12-08T15:10:16.705Z,88.67
2022-12-08T15:13:19.555Z,89.16
2022-12-08T15:16:39.613Z,89.23
2022-12-08T15:19:44.252Z,89.36
2022-12-08T15:22:46.499Z,89.68
2022-12-08T15:25:49.602Z,89.75
2022-12-08T15:28:52.177Z,89.67
2022-12-08T15:31:58.811Z,90.18
2022-12-08T15:35:01.145Z,90.95
2022-12-08T15:38:03.558Z,90.41
2022-12-08T15:41:09.051Z,90.78
2022-12-08T15:44:15.328Z,90.77
2022-12-08T15:47:22.773Z,91.44
2022-12-08T15:50:25.066Z,91.36
2022-12-08T15:53:27.273Z,91.08
2022-12-08T15:56:29.606Z,90.25
2022-12-08T15:59:32.119Z,90.64
2022-12-08T16:02:56.257Z,90.71
2022-12-08T16:06:39.062Z,90.30
2022-12-08T16:09:34.265Z,90.52
2022-12-08T16:13:55.128Z,90.28
2022-12-08T16:16:21.609Z,91.07
2022-12-08T16:19:31.443Z,92.04
2022-12-08T16:29:20.434Z,92.03
2022-12-08T16:32:23.086Z,91.82
2022-12-08T16:35:25.348Z,92.38
2022-12-08T16:38:27.701Z,92.85
2022-12-08T16:41:54.369Z,92.70
2022-12-08T16:44:56.556Z,92.87
2022-12-08T16:48:00.531Z,93.15
2022-12-08T16:51:04.602Z,93.34
2022-12-08T16:54:06.872Z,93.66
2022-12-08T16:57:09.271Z,94.47
2022-12-08T17:00:14.514Z,94.83
2022-12-08T17:03:17.499Z,95.61
2022-12-08T17:06:20.050Z,96.12
2022-12-08T17:09:22.239Z,96.38
2022-12-08T17:12:24.564Z,96.84
2022-12-08T17:15:26.806Z,97.03
2022-12-08T17:18:35.231Z,97.63
2022-12-08T17:21:37.515Z,97.84
2022-12-08T17:24:39.755Z,97.97
2022-12-08T17:27:42.260Z,97.68
2022-12-08T17:30:44.455Z,97.38
2022-12-08T17:33:46.828Z,96.94
2022-12-08T17:36:49.133Z,96.68
2022-12-08T17:39:51.388Z,96.53
2022-12-08T17:42:53.645Z,96.57
2022-12-08T17:45:56.373Z,96.68
2022-12-08T17:48:58.704Z,96.71
2022-12-08T17:52:03.519Z,96.18
2022-12-08T17:55:06.263Z,96.25
2022-12-08T17:58:08.749Z,95.73
2022-12-08T18:01:11.663Z,95.77
2022-12-08T18:04:13.931Z,96.04
2022-12-08T18:07:16.147Z,96.84
2022-12-08T18:10:19.558Z,97.36
2022-12-08T18:13:21.911Z,97.74
2022-12-08T18:16:26.480Z,97.97
2022-12-08T18:19:28.791Z,98.16
2022-12-08T18:22:31.249Z,98.22
2022-12-08T18:25:33.579Z,98.50
2022-12-08T18:28:37.156Z,98.41
2022-12-08T18:31:39.403Z,98.47
2022-12-08T18:34:41.652Z,98.75
2022-12-08T18:37:43.917Z,98.60
2022-12-08T18:40:46.169Z,97.77
2022-12-08T18:43:48.417Z,97.93
2022-12-08T18:46:50.769Z,97.27
2022-12-08T18:49:53.045Z,97.81
2022-12-08T18:52:55.325Z,97.67
2022-12-08T18:55:57.600Z,97.40
2022-12-08T18:59:04.022Z,97.03
2022-12-08T19:02:06.586Z,96.96
2022-12-08T19:05:10.800Z,96.57
2022-12-08T19:08:13.089Z,96.98
2022-12-08T19:11:20.653Z,97.26
2022-12-08T19:14:27.820Z,96.95
2022-12-08T19:17:30.874Z,96.85
2022-12-08T19:20:33.211Z,96.76
2022-12-08T19:23:35.572Z,97.10
2022-12-08T19:26:38.725Z,96.96
2022-12-08T19:29:40.963Z,97.61
2022-12-08T19:32:43.236Z,97.42
2022-12-08T19:35:52.236Z,97.10
2022-12-08T19:39:15.303Z,96.83
2022-12-08T19:42:38.417Z,96.20
2022-12-08T19:45:40.783Z,96.56
2022-12-08T19:48:43.619Z,97.20
2022-12-08T19:51:45.924Z,97.21
2022-12-08T19:54:48.148Z,96.38
2022-12-08T19:57:51.671Z,96.22
2022-12-08T20:00:53.955Z,95.77
2022-12-08T20:03:56.255Z,95.57
2022-12-08T20:06:58.595Z,95.50
2022-12-08T20:10:00.931Z,95.34
2022-12-08T20:13:22.876Z,95.22
2022-12-08T20:16:25.456Z,95.71
2022-12-08T20:19:27.719Z,96.08
2022-12-08T20:22:29.976Z,95.30
2022-12-08T20:25:32.572Z,94.97
2022-12-08T20:28:35.762Z,95.34
2022-12-08T20:31:38.356Z,95.33
2022-12-08T20:34:40.660Z,95.45
2022-12-08T20:37:43.137Z,95.84
2022-12-08T20:40:52.131Z,95.50
2022-12-08T20:43:54.569Z,95.92
2022-12-08T20:46:56.950Z,95.55
2022-12-08T20:49:59.326Z,95.64
2022-12-08T20:53:01.608Z,95.73
2022-12-08T20:56:03.952Z,95.66
2022-12-08T20:59:06.401Z,95.60
2022-12-08T21:02:10.643Z,95.86
2022-12-08T21:05:13.240Z,96.23
2022-12-08T21:08:15.643Z,95.91
2022-12-08T21:11:18.148Z,95.78
2022-12-08T21:14:20.561Z,95.16
2022-12-08T21:17:22.989Z,95.50
2022-12-08T21:20:25.439Z,94.91
2022-12-08T21:23:27.816Z,95.23
2022-12-08T21:26:30.643Z,95.81
2022-12-08T21:29:32.859Z,95.42
2022-12-08T21:32:35.314Z,95.24
2022-12-08T21:35:37.930Z,95.42
2022-12-08T21:38:40.872Z,95.64
2022-12-08T21:42:01.610Z,95.51
2022-12-08T21:45:04.264Z,95.34
2022-12-08T21:48:11.406Z,95.74
2022-12-08T21:51:14.221Z,95.79
2022-12-08T21:54:18.986Z,95.73
2022-12-08T21:57:21.874Z,95.69
2022-12-08T22:00:24.749Z,95.99
2022-12-08T22:03:28.491Z,95.92
2022-12-08T22:06:31.039Z,95.57
2022-12-08T22:09:33.418Z,95.14
2022-12-08T22:12:36.868Z,95.36
2022-12-08T22:15:42.213Z,95.23
2022-12-08T22:18:44.570Z,95.37
2022-12-08T22:21:47.301Z,95.23
2022-12-08T22:24:49.495Z,95.23
2022-12-08T22:27:51.658Z,95.06
2022-12-08T22:30:54.814Z,95.03
2022-12-08T22:33:59.134Z,95.28
2022-12-08T22:37:01.541Z,95.25
2022-12-08T22:40:04.966Z,95.29
2022-12-08T22:43:07.422Z,95.51
2022-12-08T22:46:19.942Z,95.64
2022-12-08T22:49:24.746Z,95.97
2022-12-08T22:52:26.986Z,96.34
2022-12-08T22:55:29.403Z,96.11
2022-12-08T22:58:31.661Z,96.88
2022-12-08T23:01:34.557Z,96.85
2022-12-08T23:04:37.199Z,96.75
2022-12-08T23:07:39.736Z,96.05
2022-12-08T23:10:43.264Z,96.40
2022-12-08T23:13:45.796Z,96.26
2022-12-08T23:16:48.177Z,96.41
2022-12-08T23:19:50.948Z,96.34
2022-12-08T23:22:53.392Z,96.31
2022-12-08T23:25:55.629Z,95.98
2022-12-08T23:28:58.599Z,96.66
2022-12-08T23:32:01.138Z,96.69
2022-12-08T23:35:04.485Z,97.66
2022-12-08T23:38:06.779Z,97.61
2022-12-08T23:41:11.503Z,97.31
2022-12-08T23:44:13.954Z,96.50
2022-12-08T23:47:16.455Z,96.83
2022-12-08T23:50:19.162Z,97.08
2022-12-08T23:53:21.647Z,96.55
2022-12-08T23:56:29.883Z,96.08
2022-12-08T23:59:32.791Z,96.48
